Davie, FL (33355)

1:18 PM EST on January 27, 2015 (GMT -0500)
Auboretum | Change Station
CLOSE
Current Station
Personal Weather Station
Location: Davie, FL
Elevation: 23 ft
Nearby Weather Stations

Elev 23 ft 26.11 °N, 80.32 °W | Updated 11 minutes ago

Clear
Clear
67.3 °F
Feels Like 67.3 °F
N
5.1
Wind Variable Wind from WNW

Today
High -- | Low -- °F
--% Chance of Precip.
Yesterday
High -- | Low -- °F
Precip. -- in
7:07 AM 6:00 PM
First Quarter, 56% visible
Pressure 30.03 in
Visibility 10.0 miles
Clouds Few 25000 ft
Dew Point 34 °F
Humidity 29%
Rainfall 0.00 in
Snow Depth Not available.
UV 7 out of 12
Pollen 7.20 out of 12
Air Quality Not available.
Flu Activity Not available.
METAR KFLL 271753Z 33013G18KT 10SM FEW250 18/M01 A3002 RMK AO2 SLP167 T01831006 10183 20111 58013

More Conditions Fewer Conditions

Pressure 30.03 in
Visibility 10.0 miles
Clouds Few 25000 ft
Dew Point 34 °F
Humidity 29%
Rainfall 0.00 in
Snow Depth Not available.
UV 7 out of 12
Pollen 7.20 out of 12
Air Quality Not available.
Flu Activity Not available.
METAR KFLL 271753Z 33013G18KT 10SM FEW250 18/M01 A3002 RMK AO2 SLP167 T01831006 10183 20111 58013

More Conditions Fewer Conditions

10-Day Weather Forecast

Almanac

Astronomy

Jan. 27, 2015 Rise Set
Actual Time
Civil Twilight
Nautical Twilight
Astronomical Twilight
Moon
Length of Visible Light
Length of Day
Tomorrow will be .
, % of the Moon is Illuminated

Today's Extremes

State Highs State Lows

Community

WunderPhotos

Upload Photos

1,790,745 photos uploaded!

WunderBlogs® & News

Nearby

Air Quality

  Air Quality AQ Index Pollutant
Not available.

Snow Depth

Station Depth Elevation

Earthquake Activity

City Distance Mag. Time & Date
Minimum magnitude displayed is 2.5.

Coastal Water Temperatures

Place Temperature

Nearby Weather Stations